Time;durP1;ratioP1;P1;durP2;ratioP2;P2;SDS_P1;SDS_P2;PMS_P1;PMS_P2;Temp;Humidity;BMP_temperature;BMP_pressure;BME280_temperature;BME280_humidity;BME280_pressure;Samples;Min_cycle;Max_cycle;Signal;HPM_P1;HPM_P2
2022/09/19 00:02:29;;;;;;;24.90;16.90;;;;;;;29.55;69.68;100864.09;5076499;28;66972;-37
2022/09/19 00:05:02;;;;;;;16.98;15.32;;;;;;;29.57;68.36;100859.31;5077137;28;69910;-36
2022/09/19 00:07:34;;;;;;;22.05;16.35;;;;;;;29.62;70.58;100873.03;5078281;27;66443;-36
2022/09/19 00:10:06;;;;;;;;;;;;;;;29.42;71.81;100877.63;5068273;28;70680;-36
2022/09/19 00:12:39;;;;;;;24.08;19.35;;;;;;;29.69;69.87;100881.97;5078813;27;66092;-36
2022/09/19 00:15:12;;;;;;;29.33;20.98;;;;;;;29.71;71.97;100877.19;5076278;27;70404;-37
2022/09/19 00:17:44;;;;;;;26.85;19.33;;;;;;;29.74;71.85;100895.69;5075096;27;67352;-38
2022/09/19 00:20:17;;;;;;;24.10;20.13;;;;;;;29.68;70.40;100874.09;5073655;28;70276;-36
2022/09/19 00:25:40;;;;;;;28.15;22.42;;;;;;;29.83;69.59;100905.22;5076561;27;70597;-38
2022/09/19 00:28:13;;;;;;;24.77;20.80;;;;;;;29.76;70.96;100901.72;5074021;27;66105;-36
2022/09/19 00:30:45;;;;;;;28.73;22.23;;;;;;;29.79;70.39;100901.31;5074280;28;70839;-38
2022/09/19 00:33:20;;;;;;;26.25;18.52;;;;;;;29.77;72.26;100906.09;5078562;28;67242;-38
2022/09/19 00:35:57;;;;;;;34.33;18.17;;;;;;;29.84;71.63;100914.19;5071834;28;71019;-38
2022/09/19 00:38:30;;;;;;;25.92;18.70;;;;;;;29.87;71.99;100921.88;5078778;27;67353;-38
2022/09/19 00:41:02;;;;;;;27.67;19.88;;;;;;;29.91;71.90;100933.09;5074514;27;69830;-40
2022/09/19 00:43:51;;;;;;;26.27;19.60;;;;;;;29.89;72.36;100938.69;5076237;28;66001;-38
2022/09/19 00:46:26;;;;;;;26.42;20.20;;;;;;;29.95;72.42;100937.88;5070139;28;70998;-38
2022/09/19 00:49:19;;;;;;;28.08;21.33;;;;;;;29.39;69.30;100850.03;5070673;28;67107;-36
2022/09/19 00:52:00;;;;;;;25.70;19.02;;;;;;;29.91;67.66;100919.56;5077644;27;70630;-36
2022/09/19 00:54:40;;;;;;;20.98;16.60;;;;;;;30.01;67.08;100922.66;5076790;28;67627;-36
2022/09/19 00:57:15;;;;;;;22.40;16.55;;;;;;;30.07;67.00;100929.91;5070040;28;70978;-36
2022/09/19 00:59:49;;;;;;;21.40;16.48;;;;;;;30.20;66.85;100939.84;5078600;28;66469;-36
2022/09/19 01:02:23;;;;;;;19.33;15.45;;;;;;;30.23;66.42;100944.88;5076848;28;71364;-36
2022/09/19 01:04:55;;;;;;;19.35;15.55;;;;;;;30.14;66.58;100930.72;5078074;28;67202;-37
2022/09/19 01:08:07;;;;;;;20.17;14.57;;;;;;;30.17;66.37;100951.09;5069574;28;70656;-36
2022/09/19 01:11:06;;;;;;;17.85;14.68;;;;;;;30.02;66.01;100910.78;5067891;27;67276;-37
2022/09/19 01:13:49;;;;;;;16.70;14.88;;;;;;;30.34;65.97;100956.88;5068626;28;71000;-37
2022/09/19 01:16:35;;;;;;;15.05;13.35;;;;;;;30.31;66.07;100952.72;5070687;28;66521;-37
2022/09/19 01:19:45;;;;;;;17.10;13.95;;;;;;;30.27;66.35;100952.34;5063094;27;70652;-37
2022/09/19 01:22:41;;;;;;;15.98;12.65;;;;;;;30.36;65.97;100955.63;5058762;28;67063;-36
2022/09/19 01:25:43;;;;;;;16.90;13.73;;;;;;;29.89;66.00;100889.19;5075810;28;71020;-36
2022/09/19 01:28:30;;;;;;;19.45;13.43;;;;;;;30.43;65.87;100956.44;5053353;28;66877;-36
2022/09/19 01:31:30;;;;;;;13.25;11.90;;;;;;;30.34;65.59;100963.16;5075184;28;70803;-36
2022/09/19 01:34:13;;;;;;;14.13;12.82;;;;;;;30.51;65.13;100952.66;5076488;28;66858;-37
2022/09/19 01:36:52;;;;;;;13.57;11.98;;;;;;;30.55;65.30;100959.28;5070185;27;70035;-36
2022/09/19 01:39:29;;;;;;;12.75;11.40;;;;;;;30.60;65.51;100962.19;5078284;28;65859;-38
2022/09/19 01:42:03;;;;;;;13.50;12.27;;;;;;;30.59;65.04;100955.13;5077822;27;71441;-37
2022/09/19 01:44:35;;;;;;;13.40;11.95;;;;;;;30.50;64.94;100934.75;5075658;27;67304;-37
2022/09/19 01:47:17;;;;;;;13.63;10.95;;;;;;;30.66;64.67;100960.50;5078777;28;70864;-37
2022/09/19 01:50:06;;;;;;;12.07;11.05;;;;;;;30.59;64.84;100963.25;5075798;28;65212;-37
2022/09/19 01:53:08;;;;;;;12.38;11.10;;;;;;;30.68;64.58;100971.94;5076540;27;70644;-37
2022/09/19 01:56:52;;;;;;;11.63;10.63;;;;;;;30.59;64.83;100971.38;5063775;27;66077;-37
2022/09/19 02:00:02;;;;;;;12.13;11.05;;;;;;;30.40;64.69;100921.69;5093050;27;71513;-36
2022/09/19 02:03:14;;;;;;;11.48;10.40;;;;;;;30.67;64.98;100960.28;5098057;27;67062;-36
2022/09/19 02:06:06;;;;;;;11.13;10.13;;;;;;;30.73;64.68;100959.41;5078784;28;70886;-36
2022/09/19 02:09:08;;;;;;;12.10;9.68;;;;;;;30.77;64.66;100961.69;5076112;27;66970;-36
2022/09/19 02:11:52;;;;;;;10.70;9.63;;;;;;;30.69;64.38;100939.22;5070715;28;70847;-38
2022/09/19 02:14:31;;;;;;;9.82;8.95;;;;;;;30.32;64.05;100870.53;5074942;28;66585;-37
2022/09/19 02:17:15;;;;;;;10.00;9.20;;;;;;;30.48;64.18;100890.84;5070489;28;71002;-38
2022/09/19 02:19:59;;;;;;;9.85;8.85;;;;;;;30.84;64.42;100957.06;5079269;28;67035;-36
2022/09/19 02:22:35;;;;;;;9.18;8.40;;;;;;;30.90;64.28;100961.63;5074427;28;69179;-36
2022/09/19 02:25:17;;;;;;;9.25;8.45;;;;;;;30.50;64.22;100891.44;5077943;28;66685;-36
2022/09/19 02:28:01;;;;;;;8.95;8.15;;;;;;;30.88;64.56;100952.88;5092145;27;71016;-42
2022/09/19 02:30:34;;;;;;;8.73;8.07;;;;;;;30.93;64.51;100945.75;5085633;27;66930;-36
2022/09/19 02:33:11;;;;;;;9.40;8.50;;;;;;;30.95;64.00;100934.69;5073414;28;70365;-36
2022/09/19 02:35:55;;;;;;;9.00;8.10;;;;;;;30.87;63.81;100918.72;5077633;28;67049;-38
2022/09/19 02:38:55;;;;;;;9.85;8.15;;;;;;;30.90;63.80;100939.97;5076487;28;70486;-38
2022/09/19 02:41:54;;;;;;;8.77;8.00;;;;;;;30.70;63.55;100892.16;5054469;27;66737;-37
2022/09/19 02:44:36;;;;;;;8.05;7.50;;;;;;;31.04;63.46;100946.13;5080552;28;70258;-36
2022/09/19 02:47:25;;;;;;;7.78;7.15;;;;;;;30.93;64.20;100934.09;5070564;28;66692;-37
2022/09/19 02:50:13;;;;;;;7.72;7.13;;;;;;;31.06;64.35;100949.41;5076648;28;70800;-36
2022/09/19 02:52:47;;;;;;;8.02;6.93;;;;;;;31.07;64.20;100937.53;5076201;28;67033;-36
2022/09/19 02:55:28;;;;;;;9.05;7.10;;;;;;;31.08;63.98;100941.91;5076837;28;70718;-36
2022/09/19 02:58:02;;;;;;;8.30;6.40;;;;;;;31.02;64.12;100926.53;5074796;28;67043;-38
2022/09/19 03:00:38;;;;;;;7.28;6.63;;;;;;;31.00;64.05;100918.63;5078723;28;69955;-38
2022/09/19 03:06:29;;;;;;;7.15;6.53;;;;;;;30.69;64.10;100852.56;5078540;28;70015;-36
2022/09/19 03:09:04;;;;;;;7.57;7.00;;;;;;;31.20;63.72;100917.63;5078417;28;66846;-36
2022/09/19 03:11:42;;;;;;;7.00;6.50;;;;;;;30.75;63.97;100852.75;5071517;28;70860;-35
2022/09/19 03:14:16;;;;;;;7.07;6.68;;;;;;;31.20;64.00;100914.91;5061895;28;67048;-36
2022/09/19 03:16:55;;;;;;;6.50;6.10;;;;;;;30.86;64.27;100852.06;5079754;28;70645;-36
2022/09/19 03:19:32;;;;;;;7.55;6.50;;;;;;;31.09;64.07;100875.81;5069888;28;65821;-36
2022/09/19 03:22:04;;;;;;;6.90;6.35;;;;;;;31.24;64.29;100891.75;5073455;28;70678;-36
2022/09/19 03:24:38;;;;;;;6.50;5.97;;;;;;;31.26;64.19;100895.06;5076926;28;66741;-36
2022/09/19 03:27:10;;;;;;;6.70;6.18;;;;;;;31.23;64.43;100879.25;5079735;28;70498;-37
2022/09/19 03:29:43;;;;;;;6.55;6.05;;;;;;;31.28;64.04;100887.53;5049717;28;66751;-36
2022/09/19 03:32:17;;;;;;;6.15;5.65;;;;;;;31.31;64.17;100865.41;5068054;28;70468;-37
2022/09/19 03:34:50;;;;;;;6.82;5.57;;;;;;;31.27;64.38;100847.94;5075302;27;66052;-36
2022/09/19 03:37:23;;;;;;;6.55;6.05;;;;;;;31.33;63.98;100863.31;5079325;28;71458;-38
2022/09/19 03:39:56;;;;;;;6.45;5.95;;;;;;;31.25;63.69;100844.63;5093555;27;66982;-36
2022/09/19 03:42:31;;;;;;;6.40;5.90;;;;;;;31.28;63.66;100838.75;5080158;27;70230;-36
2022/09/19 03:45:05;;;;;;;6.55;5.93;;;;;;;31.33;64.10;100834.31;5073721;28;67059;-36
2022/09/19 03:47:39;;;;;;;6.07;5.60;;;;;;;31.38;63.94;100837.22;5077665;28;70626;-36
2022/09/19 03:50:12;;;;;;;6.05;5.55;;;;;;;31.41;63.51;100832.41;5077423;28;66354;-36
2022/09/19 03:52:58;;;;;;;11.00;5.55;;;;;;;31.34;63.73;100818.88;5058956;28;70721;-36
2022/09/19 03:55:30;;;;;;;6.47;5.88;;;;;;;31.44;64.08;100838.19;5072732;28;67395;-38
2022/09/19 03:58:03;;;;;;;6.32;5.60;;;;;;;31.44;63.69;100827.34;5072414;28;69972;-36
2022/09/19 04:00:35;;;;;;;5.80;5.38;;;;;;;31.41;63.41;100835.13;5074077;28;66781;-38
2022/09/19 04:03:08;;;;;;;5.68;5.18;;;;;;;31.45;63.15;100830.88;5064321;28;70733;-38
2022/09/19 04:05:42;;;;;;;5.70;5.30;;;;;;;31.36;63.56;100806.78;5070662;28;67031;-36
2022/09/19 04:08:14;;;;;;;5.18;4.78;;;;;;;31.50;63.50;100815.59;5075893;28;70290;-37
2022/09/19 04:10:47;;;;;;;5.95;5.45;;;;;;;31.53;63.42;100811.63;5077216;28;67229;-36
2022/09/19 04:13:21;;;;;;;5.63;5.13;;;;;;;31.53;63.41;100815.16;5078362;28;70263;-36
2022/09/19 04:15:57;;;;;;;5.13;4.72;;;;;;;31.55;63.69;100813.03;5066156;28;67263;-36
2022/09/19 04:18:29;;;;;;;5.20;4.80;;;;;;;31.50;63.34;100801.22;5060431;28;70177;-36
2022/09/19 04:21:04;;;;;;;4.85;4.50;;;;;;;31.59;63.14;100803.41;5075061;28;67202;-38
2022/09/19 04:24:02;;;;;;;4.88;4.57;;;;;;;31.59;63.68;100808.00;5072771;28;70852;-38
2022/09/19 04:26:59;;;;;;;4.65;4.35;;;;;;;31.59;63.88;100798.00;5066527;28;67305;-36
2022/09/19 04:29:33;;;;;;;5.38;4.88;;;;;;;31.56;63.69;100787.56;5072893;28;70790;-37
2022/09/19 04:32:15;;;;;;;5.63;5.13;;;;;;;31.59;63.55;100780.88;5070067;28;67144;-36
2022/09/19 04:34:55;;;;;;;4.70;4.35;;;;;;;31.64;63.49;100772.06;5077149;28;70387;-35
2022/09/19 04:37:29;;;;;;;4.95;4.55;;;;;;;31.65;63.54;100760.16;5074975;28;67204;-37
2022/09/19 04:40:09;;;;;;;4.72;4.32;;;;;;;31.65;63.31;100760.16;5072637;28;70958;-37
2022/09/19 04:42:43;;;;;;;4.43;4.05;;;;;;;31.68;63.63;100751.56;5074035;28;67365;-36
2022/09/19 04:45:20;;;;;;;4.97;4.57;;;;;;;31.59;63.25;100732.91;5066863;28;69882;-36
2022/09/19 04:48:04;;;;;;;4.90;4.50;;;;;;;31.73;63.45;100746.28;5071949;28;66972;-36
2022/09/19 04:50:37;;;;;;;5.18;4.50;;;;;;;31.75;63.39;100752.31;5072003;27;70643;-37
2022/09/19 04:53:12;;;;;;;4.30;4.00;;;;;;;31.77;63.04;100750.19;5076915;28;66161;-36
2022/09/19 04:55:51;;;;;;;4.40;4.00;;;;;;;31.74;63.36;100737.94;5069182;28;69977;-36
2022/09/19 04:58:23;;;;;;;4.95;4.43;;;;;;;31.80;63.26;100730.75;5066183;28;66847;-36
2022/09/19 05:01:01;;;;;;;4.03;3.72;;;;;;;31.80;62.95;100728.88;5072962;28;70473;-37
2022/09/19 05:03:35;;;;;;;4.75;4.35;;;;;;;31.82;63.41;100721.34;5074253;27;66708;-36
2022/09/19 05:06:07;;;;;;;4.60;4.20;;;;;;;31.84;62.86;100723.78;5065496;28;70892;-38
2022/09/19 05:08:40;;;;;;;4.03;3.63;;;;;;;31.78;63.07;100719.31;5064310;28;67050;-37
2022/09/19 05:11:21;;;;;;;4.57;4.18;;;;;;;31.86;63.37;100727.13;5075500;28;70435;-37
2022/09/19 05:13:54;;;;;;;4.28;3.95;;;;;;;31.88;63.13;100719.59;5079840;27;67067;-38
2022/09/19 05:16:29;;;;;;;4.70;4.30;;;;;;;31.89;63.15;100715.81;5078456;28;70713;-37
2022/09/19 05:19:04;;;;;;;4.40;4.00;;;;;;;31.90;63.48;100717.47;5072794;28;66626;-37
2022/09/19 05:21:37;;;;;;;4.05;3.75;;;;;;;31.92;62.71;100703.69;5080530;28;70508;-37
2022/09/19 05:24:11;;;;;;;4.90;3.67;;;;;;;31.89;63.10;100704.13;5079433;28;66698;-45
2022/09/19 05:26:44;;;;;;;6.22;3.97;;;;;;;31.93;62.96;100695.34;5079506;27;70450;-38
2022/09/19 05:29:19;;;;;;;4.95;3.53;;;;;;;31.66;62.90;100639.81;5077384;28;65413;-38
2022/09/19 05:32:04;;;;;;;4.45;4.05;;;;;;;31.94;63.12;100686.13;5076962;28;70780;-36
2022/09/19 05:35:15;;;;;;;3.85;3.55;;;;;;;31.92;63.34;100671.97;5033815;28;67359;-35
2022/09/19 05:38:18;;;;;;;4.68;3.92;;;;;;;31.95;63.28;100668.78;5036382;28;69923;-36
2022/09/19 05:41:04;;;;;;;3.80;3.50;;;;;;;31.53;63.09;100598.25;5063898;28;67035;-36
2022/09/19 05:43:53;;;;;;;6.30;3.55;;;;;;;31.84;63.09;100647.84;5075581;28;70185;-36
2022/09/19 05:46:27;;;;;;;3.60;3.30;;;;;;;32.00;63.15;100652.63;5075472;28;66215;-36
2022/09/19 05:49:02;;;;;;;4.35;2.75;;;;;;;32.05;63.05;100663.63;5080706;28;71057;-36
2022/09/19 05:51:34;;;;;;;4.30;3.90;;;;;;;32.05;63.28;100644.63;5081046;28;66354;-37
2022/09/19 05:54:08;;;;;;;4.22;3.30;;;;;;;32.05;62.95;100632.94;5079277;28;70187;-37
2022/09/19 05:56:50;;;;;;;3.47;3.17;;;;;;;32.09;63.09;100633.31;5080634;28;67046;-38
2022/09/19 05:59:25;;;;;;;4.35;3.50;;;;;;;32.11;63.00;100621.16;5073545;28;70508;-36
2022/09/19 06:02:01;;;;;;;3.17;2.97;;;;;;;32.15;62.96;100616.94;5078219;28;66801;-36
2022/09/19 06:04:55;;;;;;;3.55;3.25;;;;;;;32.16;63.05;100606.88;5079537;28;68687;-36
2022/09/19 06:07:29;;;;;;;4.13;3.13;;;;;;;31.73;62.84;100521.19;5096001;27;67137;-36
2022/09/19 06:10:02;;;;;;;3.58;3.15;;;;;;;32.15;63.04;100581.66;5078340;28;70203;-37
2022/09/19 06:12:35;;;;;;;3.58;3.30;;;;;;;32.24;62.93;100582.94;5082496;28;67053;-37
2022/09/19 06:15:09;;;;;;;3.40;3.10;;;;;;;32.20;62.79;100559.22;5073856;28;70282;-36
2022/09/19 06:17:42;;;;;;;3.80;3.13;;;;;;;32.30;62.88;100569.47;5077520;28;66893;-37
2022/09/19 06:20:22;;;;;;;3.25;2.97;;;;;;;32.32;62.79;100570.91;5079358;28;70899;-38
2022/09/19 06:23:13;;;;;;;5.60;3.15;;;;;;;32.29;62.60;100557.81;5078534;28;66993;-35
2022/09/19 06:25:45;;;;;;;3.45;2.92;;;;;;;32.38;62.54;100561.81;5076361;27;70900;-37
2022/09/19 06:28:19;;;;;;;5.60;3.05;;;;;;;32.41;62.71;100560.50;5073666;28;67221;-34
2022/09/19 06:31:03;;;;;;;3.72;3.22;;;;;;;32.40;62.70;100543.38;5079250;28;71258;-35
2022/09/19 06:33:44;;;;;;;3.67;3.33;;;;;;;32.45;62.71;100535.31;5080079;28;66290;-36
2022/09/19 06:36:20;;;;;;;4.57;2.58;;;;;;;32.47;62.69;100533.25;5081402;27;70907;-36
2022/09/19 06:38:54;;;;;;;2.95;2.75;;;;;;;32.52;62.38;100532.53;5069379;28;67009;-36
2022/09/19 06:41:47;;;;;;;2.88;2.67;;;;;;;32.42;62.52;100503.22;5073449;27;70148;-36
2022/09/19 06:44:32;;;;;;;3.45;2.72;;;;;;;32.56;62.23;100511.16;5076943;28;66862;-36
2022/09/19 06:47:08;;;;;;;2.90;2.60;;;;;;;32.60;62.16;100509.63;5078620;28;70997;-36
2022/09/19 06:49:56;;;;;;;3.22;2.70;;;;;;;32.58;62.21;100503.59;5075625;28;66350;-37
2022/09/19 06:52:34;;;;;;;3.10;2.80;;;;;;;32.66;61.85;100501.31;5062782;28;70701;-37
2022/09/19 06:55:09;;;;;;;6.70;2.95;;;;;;;32.69;61.79;100494.59;5080310;28;66861;-36
2022/09/19 06:57:51;;;;;;;2.90;2.58;;;;;;;32.72;61.66;100494.09;5073531;28;71441;-36
2022/09/19 07:00:26;;;;;;;3.75;2.53;;;;;;;32.75;61.54;100490.88;5070853;28;66010;-36
2022/09/19 07:03:01;;;;;;;2.45;2.25;;;;;;;32.80;61.60;100499.13;5066830;28;71132;-37
2022/09/19 07:05:37;;;;;;;4.75;2.97;;;;;;;32.43;61.46;100426.19;5068715;27;66423;-37
2022/09/19 07:08:24;;;;;;;3.22;2.28;;;;;;;32.87;61.43;100488.94;5075043;28;70704;-36
2022/09/19 07:11:00;;;;;;;2.63;2.42;;;;;;;32.90;61.24;100482.19;5092465;27;66880;-37
2022/09/19 07:13:36;;;;;;;4.93;2.45;;;;;;;32.87;61.35;100461.78;5074644;28;70924;-36
2022/09/19 07:16:12;;;;;;;2.30;2.10;;;;;;;32.97;61.24;100476.63;5076699;28;66220;-37
2022/09/19 07:18:44;;;;;;;2.25;2.05;;;;;;;33.03;60.84;100476.50;5072701;28;70105;-38
2022/09/19 07:21:35;;;;;;;2.47;2.28;;;;;;;33.06;60.96;100472.47;5075565;28;66457;-36
2022/09/19 07:24:14;;;;;;;3.90;2.10;;;;;;;33.07;60.35;100468.66;5091900;27;70204;-36
2022/09/19 07:27:00;;;;;;;2.33;2.10;;;;;;;33.10;60.72;100460.06;5080186;27;66233;-36
2022/09/19 07:29:34;;;;;;;2.60;2.40;;;;;;;32.96;60.49;100431.50;5078721;28;70501;-36
2022/09/19 07:32:08;;;;;;;5.82;1.98;;;;;;;33.19;60.52;100464.00;5077510;28;66741;-37
2022/09/19 07:34:40;;;;;;;2.08;1.85;;;;;;;33.18;60.82;100465.06;5077401;28;70773;-36
2022/09/19 07:37:13;;;;;;;1.83;1.63;;;;;;;33.11;60.37;100445.38;5076300;28;66032;-36
2022/09/19 07:39:52;;;;;;;3.47;2.00;;;;;;;33.16;60.15;100453.63;5076786;28;70369;-36
2022/09/19 07:42:50;;;;;;;2.33;2.08;;;;;;;33.27;60.08;100463.59;5090666;27;66865;-37
2022/09/19 07:45:53;;;;;;;2.63;1.98;;;;;;;33.27;59.69;100458.16;5075391;28;70942;-36
2022/09/19 07:48:43;;;;;;;1.70;1.60;;;;;;;33.31;60.07;100462.03;5065005;28;67042;-37
2022/09/19 07:51:24;;;;;;;3.80;2.43;;;;;;;33.33;59.88;100459.88;5071935;28;71307;-37
2022/09/19 07:53:57;;;;;;;1.92;1.80;;;;;;;33.37;59.73;100455.59;5076942;28;66018;-36
2022/09/19 07:56:30;;;;;;;5.30;1.95;;;;;;;33.40;59.77;100464.31;5077123;28;70602;-37
2022/09/19 07:59:03;;;;;;;2.72;2.08;;;;;;;33.41;59.50;100457.84;5073687;28;66706;-38
2022/09/19 08:01:59;;;;;;;2.05;1.83;;;;;;;33.33;59.60;100443.56;5076452;28;71155;-39
2022/09/19 08:04:39;;;;;;;3.17;2.00;;;;;;;33.38;59.42;100446.38;5088094;27;66238;-37
2022/09/19 08:07:11;;;;;;;2.08;1.85;;;;;;;33.49;59.47;100462.81;5072007;28;70759;-36
2022/09/19 08:09:47;;;;;;;2.20;2.00;;;;;;;33.40;59.59;100442.56;5077237;28;66391;-36
2022/09/19 08:12:30;;;;;;;3.65;2.17;;;;;;;33.48;59.48;100450.31;5075294;28;70999;-36
2022/09/19 08:15:09;;;;;;;2.22;1.90;;;;;;;33.52;59.56;100451.47;5060904;28;66202;-38
2022/09/19 08:17:43;;;;;;;1.77;1.67;;;;;;;33.54;59.26;100458.34;5074051;28;69165;-36
2022/09/19 08:20:16;;;;;;;4.70;1.77;;;;;;;33.56;59.08;100458.09;5073921;28;66178;-36
2022/09/19 08:22:49;;;;;;;3.20;1.90;;;;;;;33.56;59.18;100455.38;5090341;27;70735;-39
2022/09/19 08:25:23;;;;;;;4.28;2.10;;;;;;;33.56;58.81;100449.94;5077980;28;66979;-36
2022/09/19 08:27:57;;;;;;;2.30;2.03;;;;;;;33.28;58.90;100397.28;5077936;28;71001;-37
2022/09/19 08:30:32;;;;;;;4.50;2.00;;;;;;;33.58;58.88;100451.34;5078960;28;67010;-37
2022/09/19 08:33:07;;;;;;;3.13;1.95;;;;;;;33.34;58.87;100407.16;5072997;28;71013;-37
2022/09/19 08:35:43;;;;;;;2.45;2.15;;;;;;;33.57;58.73;100443.41;5073487;28;67009;-36
2022/09/19 08:38:26;;;;;;;2.95;2.22;;;;;;;33.56;58.74;100448.03;5086817;27;70792;-38
2022/09/19 08:41:23;;;;;;;6.28;2.30;;;;;;;33.39;58.48;100430.88;5071451;27;66471;-37
2022/09/19 08:44:10;;;;;;;2.35;2.15;;;;;;;33.52;58.82;100448.75;5073161;27;69799;-37
2022/09/19 08:46:48;;;;;;;3.05;1.90;;;;;;;33.55;59.02;100446.38;5076238;27;67144;-39
2022/09/19 08:49:39;;;;;;;8.07;1.80;;;;;;;33.54;58.67;100455.63;5073496;28;70389;-39
2022/09/19 08:52:31;;;;;;;3.20;1.90;;;;;;;33.02;58.82;100366.16;5077852;28;67442;-37
2022/09/19 08:55:11;;;;;;;2.75;2.17;;;;;;;33.08;58.73;100375.22;5088540;27;70742;-37
2022/09/19 08:57:54;;;;;;;3.15;2.20;;;;;;;33.51;58.89;100449.81;5074817;28;66978;-37
2022/09/19 09:00:39;;;;;;;2.85;2.13;;;;;;;33.44;58.86;100446.47;5072945;28;70250;-37
2022/09/19 09:03:18;;;;;;;3.95;2.20;;;;;;;33.12;58.72;100398.09;5090681;27;66778;-37
2022/09/19 09:06:09;;;;;;;2.28;2.08;;;;;;;33.50;59.07;100453.63;5074580;27;70827;-36
2022/09/19 09:08:55;;;;;;;7.10;1.83;;;;;;;33.47;58.88;100465.00;5075531;28;67125;-38
2022/09/19 09:11:51;;;;;;;2.33;2.15;;;;;;;33.48;58.82;100461.19;5076189;28;70418;-38
2022/09/19 09:14:58;;;;;;;2.60;2.40;;;;;;;33.24;59.30;100453.22;5075206;28;65780;-37
2022/09/19 09:17:52;;;;;;;2.38;1.85;;;;;;;33.45;59.06;100464.41;5063763;28;70397;-37
2022/09/19 09:20:57;;;;;;;3.13;2.17;;;;;;;33.02;59.43;100392.53;5073949;28;67111;-38
2022/09/19 09:23:39;;;;;;;5.07;2.25;;;;;;;32.59;59.05;100340.41;5073718;28;70481;-36
2022/09/19 09:26:39;;;;;;;4.78;3.33;;;;;;;33.27;60.06;100450.00;5074740;28;66949;-37
2022/09/19 09:29:27;;;;;;;6.95;3.17;;;;;;;32.89;60.41;100391.72;5074262;28;70734;-36
2022/09/19 09:32:40;;;;;;;4.40;2.85;;;;;;;32.28;61.62;100353.41;5074272;27;66932;-37
2022/09/19 09:35:35;;;;;;;3.85;3.47;;;;;;;32.86;62.73;100483.75;5076190;28;70375;-36
2022/09/19 09:38:36;;;;;;;10.50;3.20;;;;;;;32.52;63.57;100469.25;5074028;27;67037;-36
2022/09/19 09:41:47;;;;;;;8.02;3.08;;;;;;;32.23;64.08;100434.75;5071050;27;70687;-37
2022/09/19 09:45:01;;;;;;;3.40;3.10;;;;;;;32.50;64.82;100493.94;5089794;27;66979;-38
2022/09/19 09:47:51;;;;;;;8.85;3.47;;;;;;;32.08;65.25;100442.56;5085950;27;70548;-39
2022/09/19 09:50:54;;;;;;;6.97;3.63;;;;;;;31.78;65.61;100404.72;5068252;28;66882;-37
2022/09/19 09:56:14;;;;;;;5.18;3.88;;;;;;;32.38;66.21;100512.94;5066908;28;70750;-37
2022/09/19 09:57:15;;;;;;;9.23;4.15;;;;;;;31.99;66.18;100450.25;5049451;28;66329;-36
2022/09/19 10:03:34;;;;;;;6.93;4.05;;;;;;;32.30;67.22;100542.34;5078583;28;66824;-38
2022/09/19 10:06:44;;;;;;;6.10;4.57;;;;;;;32.34;67.46;100549.75;5077171;28;70399;-38
2022/09/19 10:09:34;;;;;;;5.82;4.93;;;;;;;32.13;67.51;100520.53;5076508;27;67186;-36
2022/09/19 10:12:32;;;;;;;6.25;4.78;;;;;;;32.25;67.56;100551.19;5071151;28;70272;-40
2022/09/19 10:15:21;;;;;;;;;;;;;;;32.08;68.57;100550.25;5074083;28;66123;-38
2022/09/19 10:18:09;;;;;;;7.80;5.35;;;;;;;32.29;68.13;100568.66;5079108;28;70933;-38
2022/09/19 10:20:58;;;;;;;5.93;5.20;;;;;;;32.30;67.97;100564.88;5079268;28;66323;-36
2022/09/19 10:23:34;;;;;;;12.45;6.13;;;;;;;32.28;68.21;100564.28;5065084;28;70333;-36
2022/09/19 10:26:16;;;;;;;7.25;6.18;;;;;;;32.29;68.50;100560.53;5078499;27;66920;-39
2022/09/19 10:28:59;;;;;;;9.57;5.90;;;;;;;31.45;68.53;100444.06;5080339;28;70792;-36
2022/09/19 10:31:40;;;;;;;17.52;12.63;;;;;;;32.21;68.50;100560.88;5078967;27;67030;-37
2022/09/19 10:34:36;;;;;;;46.63;30.20;;;;;;;32.22;68.89;100576.09;5077661;28;71201;-36
2022/09/19 10:37:14;;;;;;;50.15;34.40;;;;;;;32.25;69.01;100584.56;5061177;28;66943;-38
2022/09/19 10:39:48;;;;;;;54.65;33.67;;;;;;;32.19;69.54;100584.72;5076679;28;70168;-39
2022/09/19 10:42:29;;;;;;;45.15;31.70;;;;;;;32.27;69.76;100600.63;5076249;27;67203;-37
2022/09/19 10:45:18;;;;;;;40.78;28.13;;;;;;;31.86;70.19;100525.56;5091717;27;70282;-39
2022/09/19 10:48:00;;;;;;;34.35;22.60;;;;;;;32.29;70.59;100593.09;5069883;27;67367;-37
2022/09/19 10:50:33;;;;;;;29.98;19.17;;;;;;;31.86;70.70;100531.81;5093972;27;70083;-37
2022/09/19 10:53:22;;;;;;;29.08;15.85;;;;;;;32.25;70.56;100594.63;5073562;27;66683;-38
2022/09/19 10:56:03;;;;;;;24.45;13.73;;;;;;;32.24;71.84;100593.78;5096015;27;69884;-39
2022/09/19 10:58:41;;;;;;;18.33;11.95;;;;;;;32.23;72.10;100603.00;5079005;28;66801;-37
2022/09/19 11:01:24;;;;;;;18.40;10.98;;;;;;;32.19;72.30;100596.38;5076182;27;70713;-37
2022/09/19 11:04:13;;;;;;;12.02;10.10;;;;;;;32.25;72.26;100610.91;5090402;27;67157;-36
2022/09/19 11:07:04;;;;;;;11.40;9.55;;;;;;;31.71;72.70;100535.00;5077974;28;71102;-37
2022/09/19 11:09:37;;;;;;;16.80;9.40;;;;;;;32.39;70.07;100601.44;5074377;27;66615;-37
2022/09/19 11:12:17;;;;;;;11.48;8.70;;;;;;;32.51;69.95;100603.34;5075581;28;70678;-39
2022/09/19 11:14:55;;;;;;;10.40;9.15;;;;;;;32.55;69.48;100610.78;5094920;27;66243;-37
2022/09/19 11:18:01;;;;;;;9.80;8.68;;;;;;;32.60;69.08;100618.25;5090991;27;69946;-37
2022/09/19 11:20:57;;;;;;;10.50;9.02;;;;;;;32.61;69.20;100636.16;5074133;28;66757;-37
2022/09/19 11:24:00;;;;;;;13.52;8.93;;;;;;;32.52;69.99;100643.03;5092339;27;69495;-37
2022/09/19 11:26:57;;;;;;;9.80;8.75;;;;;;;32.63;69.11;100650.34;5073446;28;66941;-38
2022/09/19 11:29:55;;;;;;;10.05;9.05;;;;;;;32.31;68.90;100603.69;5093028;27;70008;-37
2022/09/19 11:32:56;;;;;;;9.52;8.60;;;;;;;32.63;69.34;100663.91;5076874;28;66994;-38
2022/09/19 11:36:26;;;;;;;12.23;8.93;;;;;;;32.13;69.33;100591.09;5075828;27;70222;-36
2022/09/19 11:39:15;;;;;;;9.55;8.63;;;;;;;32.62;69.01;100659.53;5074483;28;66755;-38
2022/09/19 11:42:33;;;;;;;11.88;8.43;;;;;;;32.51;69.43;100654.94;5077290;27;70238;-38
2022/09/19 11:45:15;;;;;;;9.10;8.18;;;;;;;32.60;68.57;100672.53;5051590;28;65964;-38
2022/09/19 11:47:59;;;;;;;9.77;8.02;;;;;;;32.61;68.52;100679.63;5076117;28;70548;-37
2022/09/19 11:50:39;;;;;;;7.65;7.05;;;;;;;32.58;68.59;100683.63;5076515;28;66887;-37
2022/09/19 11:53:28;;;;;;;7.15;6.53;;;;;;;32.16;68.30;100634.03;5072963;28;70484;-37
2022/09/19 11:56:23;;;;;;;6.03;5.60;;;;;;;32.56;68.12;100691.19;5076704;28;66859;-40
2022/09/19 11:59:24;;;;;;;5.50;5.03;;;;;;;32.39;68.74;100715.47;5076501;28;70771;-39
2022/09/19 12:02:01;;;;;;;4.40;4.10;;;;;;;32.47;68.24;100722.47;5074120;28;66435;-37
2022/09/19 12:04:49;;;;;;;5.63;5.22;;;;;;;32.36;68.45;100737.66;5073689;28;71000;-37
2022/09/19 12:07:35;;;;;;;4.57;4.28;;;;;;;32.15;71.32;100757.19;5073634;27;66959;-39
2022/09/19 12:10:21;;;;;;;5.05;4.30;;;;;;;32.01;72.33;100770.97;5071788;28;71109;-39
2022/09/19 12:13:09;;;;;;;6.25;3.60;;;;;;;31.86;73.02;100765.09;5093214;27;68162;-41
2022/09/19 12:16:12;;;;;;;3.97;3.65;;;;;;;31.73;73.59;100768.81;5061159;28;70633;-40
2022/09/19 12:19:01;;;;;;;3.67;3.38;;;;;;;31.39;74.12;100726.91;5071822;28;66435;-39
2022/09/19 12:21:45;;;;;;;3.85;3.55;;;;;;;31.12;74.24;100689.28;5076519;27;70556;-37
2022/09/19 12:24:53;;;;;;;3.40;3.10;;;;;;;31.45;75.02;100763.94;5092480;27;66947;-39
2022/09/19 12:27:44;;;;;;;3.70;3.40;;;;;;;31.52;74.78;100766.59;5095107;27;70620;-40
2022/09/19 12:30:19;;;;;;;4.18;3.78;;;;;;;31.32;75.17;100731.56;5070423;28;67182;-38
2022/09/19 12:33:21;;;;;;;4.53;3.40;;;;;;;31.44;75.75;100762.28;5077921;28;70877;-38
2022/09/19 12:36:04;;;;;;;3.60;3.30;;;;;;;31.43;75.60;100766.06;5072289;28;67570;-38
2022/09/19 12:39:11;;;;;;;4.70;3.22;;;;;;;31.30;75.21;100767.00;5061202;28;70847;-39
2022/09/19 12:41:49;;;;;;;4.47;2.60;;;;;;;30.90;74.98;100690.78;5070642;28;66624;-40
2022/09/19 12:44:37;;;;;;;3.72;2.88;;;;;;;31.38;74.70;100784.91;5078598;28;70403;-38
2022/09/19 12:47:36;;;;;;;3.47;2.85;;;;;;;31.33;74.77;100798.25;5076028;27;66994;-39